sensor_id;sensor_type;location;lat;lon;timestamp;P1;durP1;ratioP1;P2;durP2;ratioP2
9254;SDS011;4663;49.120;9.730;2023-02-28T00:00:30;23.90;;;22.50;;
9254;SDS011;4663;49.120;9.730;2023-02-28T00:02:56;23.03;;;21.83;;
9254;SDS011;4663;49.120;9.730;2023-02-28T00:05:22;24.93;;;23.43;;
9254;SDS011;4663;49.120;9.730;2023-02-28T00:07:49;23.43;;;22.13;;
9254;SDS011;4663;49.120;9.730;2023-02-28T00:10:17;24.27;;;23.07;;
9254;SDS011;4663;49.120;9.730;2023-02-28T00:12:46;23.23;;;22.03;;
9254;SDS011;4663;49.120;9.730;2023-02-28T00:15:15;23.63;;;22.33;;
9254;SDS011;4663;49.120;9.730;2023-02-28T00:17:41;22.83;;;21.63;;
9254;SDS011;4663;49.120;9.730;2023-02-28T00:20:06;21.40;;;20.17;;
9254;SDS011;4663;49.120;9.730;2023-02-28T00:22:33;21.77;;;20.33;;
9254;SDS011;4663;49.120;9.730;2023-02-28T00:24:59;21.30;;;20.13;;
9254;SDS011;4663;49.120;9.730;2023-02-28T00:27:24;21.37;;;20.13;;
9254;SDS011;4663;49.120;9.730;2023-02-28T00:29:49;21.17;;;20.07;;
9254;SDS011;4663;49.120;9.730;2023-02-28T00:32:15;22.33;;;20.97;;
9254;SDS011;4663;49.120;9.730;2023-02-28T00:34:40;20.47;;;19.40;;
9254;SDS011;4663;49.120;9.730;2023-02-28T00:37:06;19.33;;;18.17;;
9254;SDS011;4663;49.120;9.730;2023-02-28T00:39:33;19.10;;;18.00;;
9254;SDS011;4663;49.120;9.730;2023-02-28T00:42:00;19.07;;;17.60;;
9254;SDS011;4663;49.120;9.730;2023-02-28T00:44:27;18.37;;;17.33;;
9254;SDS011;4663;49.120;9.730;2023-02-28T00:46:52;19.40;;;18.17;;
9254;SDS011;4663;49.120;9.730;2023-02-28T00:49:19;17.63;;;16.67;;
9254;SDS011;4663;49.120;9.730;2023-02-28T00:51:45;17.53;;;16.43;;
9254;SDS011;4663;49.120;9.730;2023-02-28T00:54:10;16.80;;;15.83;;
9254;SDS011;4663;49.120;9.730;2023-02-28T00:56:36;16.00;;;14.90;;
9254;SDS011;4663;49.120;9.730;2023-02-28T00:59:01;15.20;;;14.30;;
9254;SDS011;4663;49.120;9.730;2023-02-28T01:01:27;15.50;;;14.57;;
9254;SDS011;4663;49.120;9.730;2023-02-28T01:03:52;16.23;;;15.27;;
9254;SDS011;4663;49.120;9.730;2023-02-28T01:06:17;15.70;;;14.80;;
9254;SDS011;4663;49.120;9.730;2023-02-28T01:08:43;17.90;;;16.90;;
9254;SDS011;4663;49.120;9.730;2023-02-28T01:11:09;17.20;;;16.23;;
9254;SDS011;4663;49.120;9.730;2023-02-28T01:13:36;17.37;;;16.37;;
9254;SDS011;4663;49.120;9.730;2023-02-28T01:16:02;17.43;;;16.43;;
9254;SDS011;4663;49.120;9.730;2023-02-28T01:18:28;15.33;;;14.43;;
9254;SDS011;4663;49.120;9.730;2023-02-28T01:20:53;15.00;;;14.00;;
9254;SDS011;4663;49.120;9.730;2023-02-28T01:23:19;14.47;;;13.57;;
9254;SDS011;4663;49.120;9.730;2023-02-28T01:25:46;15.43;;;14.53;;
9254;SDS011;4663;49.120;9.730;2023-02-28T01:28:12;14.93;;;14.07;;
9254;SDS011;4663;49.120;9.730;2023-02-28T01:30:37;16.00;;;15.03;;
9254;SDS011;4663;49.120;9.730;2023-02-28T01:33:02;15.90;;;14.93;;
9254;SDS011;4663;49.120;9.730;2023-02-28T01:35:28;15.27;;;14.33;;
9254;SDS011;4663;49.120;9.730;2023-02-28T01:37:53;15.03;;;13.93;;
9254;SDS011;4663;49.120;9.730;2023-02-28T01:40:19;15.20;;;14.10;;
9254;SDS011;4663;49.120;9.730;2023-02-28T01:42:44;13.87;;;12.97;;
9254;SDS011;4663;49.120;9.730;2023-02-28T01:45:31;14.57;;;13.77;;
9254;SDS011;4663;49.120;9.730;2023-02-28T01:47:58;12.87;;;11.97;;
9254;SDS011;4663;49.120;9.730;2023-02-28T01:50:28;13.73;;;12.73;;
9254;SDS011;4663;49.120;9.730;2023-02-28T01:52:56;12.80;;;12.00;;
9254;SDS011;4663;49.120;9.730;2023-02-28T01:55:26;13.37;;;12.57;;
9254;SDS011;4663;49.120;9.730;2023-02-28T01:57:55;13.53;;;12.63;;
9254;SDS011;4663;49.120;9.730;2023-02-28T02:00:24;13.47;;;12.67;;
9254;SDS011;4663;49.120;9.730;2023-02-28T02:02:53;13.70;;;12.87;;
9254;SDS011;4663;49.120;9.730;2023-02-28T02:05:23;12.87;;;12.07;;
9254;SDS011;4663;49.120;9.730;2023-02-28T02:07:51;13.20;;;12.10;;
9254;SDS011;4663;49.120;9.730;2023-02-28T02:10:42;12.00;;;11.30;;
9254;SDS011;4663;49.120;9.730;2023-02-28T02:25:11;12.67;;;11.87;;
9254;SDS011;4663;49.120;9.730;2023-02-28T02:33:44;13.40;;;12.50;;
9254;SDS011;4663;49.120;9.730;2023-02-28T02:38:53;13.37;;;12.27;;
9254;SDS011;4663;49.120;9.730;2023-02-28T02:44:18;12.63;;;11.73;;
9254;SDS011;4663;49.120;9.730;2023-02-28T02:46:45;12.70;;;11.87;;
9254;SDS011;4663;49.120;9.730;2023-02-28T02:49:15;12.83;;;11.93;;
9254;SDS011;4663;49.120;9.730;2023-02-28T02:51:44;14.27;;;13.20;;
9254;SDS011;4663;49.120;9.730;2023-02-28T02:54:26;13.23;;;12.33;;
9254;SDS011;4663;49.120;9.730;2023-02-28T02:56:57;13.33;;;12.43;;
9254;SDS011;4663;49.120;9.730;2023-02-28T02:59:27;12.20;;;11.40;;
9254;SDS011;4663;49.120;9.730;2023-02-28T03:01:57;13.90;;;12.90;;
9254;SDS011;4663;49.120;9.730;2023-02-28T03:04:27;13.30;;;12.40;;
9254;SDS011;4663;49.120;9.730;2023-02-28T03:06:58;14.37;;;13.23;;
9254;SDS011;4663;49.120;9.730;2023-02-28T03:09:24;12.63;;;11.83;;
9254;SDS011;4663;49.120;9.730;2023-02-28T03:11:51;13.00;;;11.87;;
9254;SDS011;4663;49.120;9.730;2023-02-28T03:14:25;13.97;;;13.07;;
9254;SDS011;4663;49.120;9.730;2023-02-28T03:25:54;13.60;;;12.60;;
9254;SDS011;4663;49.120;9.730;2023-02-28T03:32:57;12.53;;;11.63;;
9254;SDS011;4663;49.120;9.730;2023-02-28T03:35:34;14.27;;;13.07;;
9254;SDS011;4663;49.120;9.730;2023-02-28T03:38:09;13.47;;;12.57;;
9254;SDS011;4663;49.120;9.730;2023-02-28T03:40:40;13.33;;;12.33;;
9254;SDS011;4663;49.120;9.730;2023-02-28T03:43:12;14.03;;;13.03;;
9254;SDS011;4663;49.120;9.730;2023-02-28T03:45:43;12.67;;;11.80;;
9254;SDS011;4663;49.120;9.730;2023-02-28T03:48:13;14.60;;;13.60;;
9254;SDS011;4663;49.120;9.730;2023-02-28T03:50:45;12.30;;;11.40;;
9254;SDS011;4663;49.120;9.730;2023-02-28T03:53:27;13.57;;;12.67;;
9254;SDS011;4663;49.120;9.730;2023-02-28T03:56:19;14.87;;;13.77;;
9254;SDS011;4663;49.120;9.730;2023-02-28T03:59:00;14.53;;;13.43;;
9254;SDS011;4663;49.120;9.730;2023-02-28T04:01:33;13.80;;;12.80;;
9254;SDS011;4663;49.120;9.730;2023-02-28T04:04:00;13.70;;;12.80;;
9254;SDS011;4663;49.120;9.730;2023-02-28T04:06:27;13.73;;;12.73;;
9254;SDS011;4663;49.120;9.730;2023-02-28T04:08:57;14.63;;;13.53;;
9254;SDS011;4663;49.120;9.730;2023-02-28T04:14:00;14.00;;;13.07;;
9254;SDS011;4663;49.120;9.730;2023-02-28T04:16:29;14.23;;;13.27;;
9254;SDS011;4663;49.120;9.730;2023-02-28T04:18:56;14.27;;;13.27;;
9254;SDS011;4663;49.120;9.730;2023-02-28T04:21:30;13.77;;;12.77;;
9254;SDS011;4663;49.120;9.730;2023-02-28T04:23:57;14.67;;;13.67;;
9254;SDS011;4663;49.120;9.730;2023-02-28T04:26:25;14.90;;;13.80;;
9254;SDS011;4663;49.120;9.730;2023-02-28T04:28:53;13.67;;;12.63;;
9254;SDS011;4663;49.120;9.730;2023-02-28T04:31:18;13.30;;;12.30;;
9254;SDS011;4663;49.120;9.730;2023-02-28T04:33:44;14.50;;;13.30;;
9254;SDS011;4663;49.120;9.730;2023-02-28T04:36:09;13.13;;;12.30;;
9254;SDS011;4663;49.120;9.730;2023-02-28T04:38:35;13.90;;;12.90;;
9254;SDS011;4663;49.120;9.730;2023-02-28T04:41:02;14.43;;;13.33;;
9254;SDS011;4663;49.120;9.730;2023-02-28T04:43:28;14.47;;;13.50;;
9254;SDS011;4663;49.120;9.730;2023-02-28T04:45:54;16.23;;;15.03;;
9254;SDS011;4663;49.120;9.730;2023-02-28T04:48:25;15.50;;;14.50;;
9254;SDS011;4663;49.120;9.730;2023-02-28T04:50:52;15.70;;;14.60;;
9254;SDS011;4663;49.120;9.730;2023-02-28T04:53:18;16.23;;;15.23;;
9254;SDS011;4663;49.120;9.730;2023-02-28T04:55:44;15.33;;;14.37;;
9254;SDS011;4663;49.120;9.730;2023-02-28T04:58:09;15.03;;;13.80;;
9254;SDS011;4663;49.120;9.730;2023-02-28T05:00:35;15.43;;;14.23;;
9254;SDS011;4663;49.120;9.730;2023-02-28T05:03:00;14.80;;;13.80;;
9254;SDS011;4663;49.120;9.730;2023-02-28T05:05:26;15.50;;;14.40;;
9254;SDS011;4663;49.120;9.730;2023-02-28T05:07:51;14.93;;;13.83;;
9254;SDS011;4663;49.120;9.730;2023-02-28T05:10:18;14.13;;;13.00;;
9254;SDS011;4663;49.120;9.730;2023-02-28T05:12:44;14.57;;;13.57;;
9254;SDS011;4663;49.120;9.730;2023-02-28T05:15:12;14.13;;;13.20;;
9254;SDS011;4663;49.120;9.730;2023-02-28T05:17:38;14.00;;;13.00;;
9254;SDS011;4663;49.120;9.730;2023-02-28T05:20:03;15.00;;;13.90;;
9254;SDS011;4663;49.120;9.730;2023-02-28T05:22:30;13.43;;;12.50;;
9254;SDS011;4663;49.120;9.730;2023-02-28T05:24:55;15.10;;;14.03;;
9254;SDS011;4663;49.120;9.730;2023-02-28T05:27:21;14.13;;;13.13;;
9254;SDS011;4663;49.120;9.730;2023-02-28T05:29:46;14.07;;;12.90;;
9254;SDS011;4663;49.120;9.730;2023-02-28T05:32:12;14.60;;;13.40;;
9254;SDS011;4663;49.120;9.730;2023-02-28T05:34:38;14.27;;;13.27;;
9254;SDS011;4663;49.120;9.730;2023-02-28T05:37:04;14.53;;;13.53;;
9254;SDS011;4663;49.120;9.730;2023-02-28T05:39:31;14.83;;;13.60;;
9254;SDS011;4663;49.120;9.730;2023-02-28T05:41:58;14.13;;;13.13;;
9254;SDS011;4663;49.120;9.730;2023-02-28T05:44:23;14.27;;;13.07;;
9254;SDS011;4663;49.120;9.730;2023-02-28T05:46:49;14.33;;;13.23;;
9254;SDS011;4663;49.120;9.730;2023-02-28T05:49:14;15.00;;;13.90;;
9254;SDS011;4663;49.120;9.730;2023-02-28T05:51:40;14.10;;;12.97;;
9254;SDS011;4663;49.120;9.730;2023-02-28T05:54:05;14.43;;;13.33;;
9254;SDS011;4663;49.120;9.730;2023-02-28T05:56:32;14.30;;;13.20;;
9254;SDS011;4663;49.120;9.730;2023-02-28T05:58:59;14.63;;;13.60;;
9254;SDS011;4663;49.120;9.730;2023-02-28T06:03:56;15.90;;;14.60;;
9254;SDS011;4663;49.120;9.730;2023-02-28T06:06:21;15.77;;;14.57;;
9254;SDS011;4663;49.120;9.730;2023-02-28T06:08:47;14.87;;;13.70;;
9254;SDS011;4663;49.120;9.730;2023-02-28T06:11:12;14.53;;;13.23;;
9254;SDS011;4663;49.120;9.730;2023-02-28T06:13:38;15.57;;;14.40;;
9254;SDS011;4663;49.120;9.730;2023-02-28T06:16:04;14.77;;;13.77;;
9254;SDS011;4663;49.120;9.730;2023-02-28T06:18:29;16.17;;;14.97;;
9254;SDS011;4663;49.120;9.730;2023-02-28T06:20:55;16.17;;;14.77;;
9254;SDS011;4663;49.120;9.730;2023-02-28T06:23:21;15.60;;;14.47;;
9254;SDS011;4663;49.120;9.730;2023-02-28T06:25:47;16.73;;;15.47;;
9254;SDS011;4663;49.120;9.730;2023-02-28T06:28:12;15.77;;;14.47;;
9254;SDS011;4663;49.120;9.730;2023-02-28T06:30:38;16.00;;;14.80;;
9254;SDS011;4663;49.120;9.730;2023-02-28T06:33:04;16.20;;;15.00;;
9254;SDS011;4663;49.120;9.730;2023-02-28T06:35:29;15.43;;;14.33;;
9254;SDS011;4663;49.120;9.730;2023-02-28T06:37:55;15.73;;;14.47;;
9254;SDS011;4663;49.120;9.730;2023-02-28T06:40:20;15.40;;;14.30;;
9254;SDS011;4663;49.120;9.730;2023-02-28T06:42:46;16.07;;;14.83;;
9254;SDS011;4663;49.120;9.730;2023-02-28T06:45:11;16.87;;;15.47;;
9254;SDS011;4663;49.120;9.730;2023-02-28T06:47:38;16.77;;;15.17;;
9254;SDS011;4663;49.120;9.730;2023-02-28T06:50:05;15.77;;;14.53;;
9254;SDS011;4663;49.120;9.730;2023-02-28T06:52:32;17.00;;;15.60;;
9254;SDS011;4663;49.120;9.730;2023-02-28T06:54:57;16.17;;;14.87;;
9254;SDS011;4663;49.120;9.730;2023-02-28T06:57:29;16.60;;;15.43;;
9254;SDS011;4663;49.120;9.730;2023-02-28T06:59:57;17.57;;;16.03;;
9254;SDS011;4663;49.120;9.730;2023-02-28T07:02:23;17.10;;;15.67;;
9254;SDS011;4663;49.120;9.730;2023-02-28T07:04:49;16.93;;;15.47;;
9254;SDS011;4663;49.120;9.730;2023-02-28T07:07:14;17.47;;;16.07;;
9254;SDS011;4663;49.120;9.730;2023-02-28T07:09:39;17.10;;;15.70;;
9254;SDS011;4663;49.120;9.730;2023-02-28T07:12:05;17.23;;;15.80;;
9254;SDS011;4663;49.120;9.730;2023-02-28T07:14:30;18.13;;;16.73;;
9254;SDS011;4663;49.120;9.730;2023-02-28T07:16:55;16.93;;;15.63;;
9254;SDS011;4663;49.120;9.730;2023-02-28T07:19:21;16.60;;;15.33;;
9254;SDS011;4663;49.120;9.730;2023-02-28T07:21:46;19.77;;;18.23;;
9254;SDS011;4663;49.120;9.730;2023-02-28T07:24:11;21.93;;;20.17;;
9254;SDS011;4663;49.120;9.730;2023-02-28T07:26:37;24.13;;;22.33;;
9254;SDS011;4663;49.120;9.730;2023-02-28T07:29:02;27.30;;;25.30;;
9254;SDS011;4663;49.120;9.730;2023-02-28T07:31:28;26.27;;;24.47;;
9254;SDS011;4663;49.120;9.730;2023-02-28T07:33:53;26.80;;;25.03;;
9254;SDS011;4663;49.120;9.730;2023-02-28T07:36:19;27.10;;;25.23;;
9254;SDS011;4663;49.120;9.730;2023-02-28T07:38:45;30.40;;;28.40;;
9254;SDS011;4663;49.120;9.730;2023-02-28T07:41:21;27.03;;;25.10;;
9254;SDS011;4663;49.120;9.730;2023-02-28T07:43:47;29.03;;;27.13;;
9254;SDS011;4663;49.120;9.730;2023-02-28T07:46:13;25.73;;;24.07;;
9254;SDS011;4663;49.120;9.730;2023-02-28T07:48:40;26.07;;;24.33;;
9254;SDS011;4663;49.120;9.730;2023-02-28T07:51:06;26.27;;;24.20;;
9254;SDS011;4663;49.120;9.730;2023-02-28T07:53:31;24.20;;;22.40;;
9254;SDS011;4663;49.120;9.730;2023-02-28T07:55:57;22.03;;;20.33;;
9254;SDS011;4663;49.120;9.730;2023-02-28T07:58:25;21.27;;;19.70;;
9254;SDS011;4663;49.120;9.730;2023-02-28T08:00:52;21.27;;;19.77;;
9254;SDS011;4663;49.120;9.730;2023-02-28T08:03:18;20.23;;;18.73;;
9254;SDS011;4663;49.120;9.730;2023-02-28T08:05:44;20.40;;;18.70;;
9254;SDS011;4663;49.120;9.730;2023-02-28T08:08:10;21.57;;;19.90;;
9254;SDS011;4663;49.120;9.730;2023-02-28T08:10:35;19.90;;;18.50;;
9254;SDS011;4663;49.120;9.730;2023-02-28T08:13:01;19.83;;;18.10;;
9254;SDS011;4663;49.120;9.730;2023-02-28T08:15:26;23.17;;;21.47;;
9254;SDS011;4663;49.120;9.730;2023-02-28T08:17:52;24.27;;;22.67;;
9254;SDS011;4663;49.120;9.730;2023-02-28T08:20:17;30.10;;;28.13;;
9254;SDS011;4663;49.120;9.730;2023-02-28T08:22:43;34.40;;;32.20;;
9254;SDS011;4663;49.120;9.730;2023-02-28T08:25:08;36.43;;;34.23;;
9254;SDS011;4663;49.120;9.730;2023-02-28T08:27:34;33.27;;;31.00;;
9254;SDS011;4663;49.120;9.730;2023-02-28T08:30:00;28.47;;;26.47;;
9254;SDS011;4663;49.120;9.730;2023-02-28T08:32:25;22.03;;;20.50;;
9254;SDS011;4663;49.120;9.730;2023-02-28T08:34:51;20.43;;;18.93;;
9254;SDS011;4663;49.120;9.730;2023-02-28T08:37:16;26.10;;;23.90;;
9254;SDS011;4663;49.120;9.730;2023-02-28T08:39:42;23.87;;;22.00;;
9254;SDS011;4663;49.120;9.730;2023-02-28T08:42:07;29.07;;;26.50;;
9254;SDS011;4663;49.120;9.730;2023-02-28T08:44:32;30.53;;;28.30;;
9254;SDS011;4663;49.120;9.730;2023-02-28T08:46:58;30.00;;;28.07;;
9254;SDS011;4663;49.120;9.730;2023-02-28T08:49:23;31.23;;;29.00;;
9254;SDS011;4663;49.120;9.730;2023-02-28T08:51:48;30.83;;;28.57;;
9254;SDS011;4663;49.120;9.730;2023-02-28T08:54:14;30.93;;;28.90;;
9254;SDS011;4663;49.120;9.730;2023-02-28T08:56:44;29.03;;;27.13;;
9254;SDS011;4663;49.120;9.730;2023-02-28T08:59:11;26.30;;;24.50;;
9254;SDS011;4663;49.120;9.730;2023-02-28T09:01:37;25.90;;;24.13;;
9254;SDS011;4663;49.120;9.730;2023-02-28T09:04:03;25.10;;;23.40;;
9254;SDS011;4663;49.120;9.730;2023-02-28T09:06:28;21.60;;;20.10;;
9254;SDS011;4663;49.120;9.730;2023-02-28T09:08:56;21.67;;;20.13;;
9254;SDS011;4663;49.120;9.730;2023-02-28T09:11:26;18.57;;;17.17;;
9254;SDS011;4663;49.120;9.730;2023-02-28T09:13:53;27.10;;;25.20;;
9254;SDS011;4663;49.120;9.730;2023-02-28T09:16:20;49.93;;;47.10;;
9254;SDS011;4663;49.120;9.730;2023-02-28T09:18:46;43.50;;;40.93;;
9254;SDS011;4663;49.120;9.730;2023-02-28T09:21:13;44.87;;;42.30;;
9254;SDS011;4663;49.120;9.730;2023-02-28T09:23:41;46.07;;;43.47;;
9254;SDS011;4663;49.120;9.730;2023-02-28T09:26:07;31.47;;;29.57;;
9254;SDS011;4663;49.120;9.730;2023-02-28T09:28:37;25.83;;;24.23;;
9254;SDS011;4663;49.120;9.730;2023-02-28T09:31:03;30.13;;;28.13;;
9254;SDS011;4663;49.120;9.730;2023-02-28T09:33:29;40.90;;;38.50;;
9254;SDS011;4663;49.120;9.730;2023-02-28T09:35:59;47.10;;;44.40;;
9254;SDS011;4663;49.120;9.730;2023-02-28T09:38:26;42.03;;;39.63;;
9254;SDS011;4663;49.120;9.730;2023-02-28T09:40:53;43.10;;;40.60;;
9254;SDS011;4663;49.120;9.730;2023-02-28T09:43:23;46.80;;;44.10;;
9254;SDS011;4663;49.120;9.730;2023-02-28T09:45:52;47.57;;;44.77;;
9254;SDS011;4663;49.120;9.730;2023-02-28T09:48:33;49.27;;;46.47;;
9254;SDS011;4663;49.120;9.730;2023-02-28T09:51:03;39.63;;;37.23;;
9254;SDS011;4663;49.120;9.730;2023-02-28T09:53:35;34.63;;;32.50;;
9254;SDS011;4663;49.120;9.730;2023-02-28T09:56:08;23.77;;;22.20;;
9254;SDS011;4663;49.120;9.730;2023-02-28T10:01:46;30.10;;;27.97;;
9254;SDS011;4663;49.120;9.730;2023-02-28T10:07:14;29.20;;;27.30;;
9254;SDS011;4663;49.120;9.730;2023-02-28T10:10:03;41.47;;;38.83;;
9254;SDS011;4663;49.120;9.730;2023-02-28T10:12:38;46.07;;;43.07;;
9254;SDS011;4663;49.120;9.730;2023-02-28T10:15:12;42.27;;;39.47;;
9254;SDS011;4663;49.120;9.730;2023-02-28T10:17:41;46.67;;;44.03;;
9254;SDS011;4663;49.120;9.730;2023-02-28T10:20:13;44.40;;;41.77;;
9254;SDS011;4663;49.120;9.730;2023-02-28T10:22:57;45.33;;;42.60;;
9254;SDS011;4663;49.120;9.730;2023-02-28T10:25:33;43.33;;;40.63;;
9254;SDS011;4663;49.120;9.730;2023-02-28T10:28:10;43.17;;;40.73;;
9254;SDS011;4663;49.120;9.730;2023-02-28T10:30:37;41.67;;;39.17;;
9254;SDS011;4663;49.120;9.730;2023-02-28T10:33:08;42.87;;;40.27;;
9254;SDS011;4663;49.120;9.730;2023-02-28T10:35:43;45.40;;;42.67;;
9254;SDS011;4663;49.120;9.730;2023-02-28T10:38:15;47.43;;;44.80;;
9254;SDS011;4663;49.120;9.730;2023-02-28T10:40:43;53.00;;;49.80;;
9254;SDS011;4663;49.120;9.730;2023-02-28T10:45:37;43.47;;;40.90;;
9254;SDS011;4663;49.120;9.730;2023-02-28T10:48:26;43.47;;;40.93;;
9254;SDS011;4663;49.120;9.730;2023-02-28T10:50:56;44.97;;;42.33;;
9254;SDS011;4663;49.120;9.730;2023-02-28T11:03:46;18.47;;;17.07;;
9254;SDS011;4663;49.120;9.730;2023-02-28T11:06:14;18.17;;;16.87;;
9254;SDS011;4663;49.120;9.730;2023-02-28T11:08:47;18.53;;;17.13;;
9254;SDS011;4663;49.120;9.730;2023-02-28T11:11:21;18.23;;;16.83;;
9254;SDS011;4663;49.120;9.730;2023-02-28T11:13:50;18.30;;;16.90;;
9254;SDS011;4663;49.120;9.730;2023-02-28T11:16:19;17.53;;;16.07;;
9254;SDS011;4663;49.120;9.730;2023-02-28T11:21:21;19.87;;;18.17;;
9254;SDS011;4663;49.120;9.730;2023-02-28T11:23:50;19.67;;;18.23;;
9254;SDS011;4663;49.120;9.730;2023-02-28T11:26:40;20.53;;;19.03;;
9254;SDS011;4663;49.120;9.730;2023-02-28T11:34:34;26.93;;;25.13;;
9254;SDS011;4663;49.120;9.730;2023-02-28T11:37:01;32.80;;;30.43;;
9254;SDS011;4663;49.120;9.730;2023-02-28T11:39:30;32.97;;;30.97;;
9254;SDS011;4663;49.120;9.730;2023-02-28T11:47:25;34.50;;;32.30;;
9254;SDS011;4663;49.120;9.730;2023-02-28T11:52:55;25.37;;;23.67;;
9254;SDS011;4663;49.120;9.730;2023-02-28T11:55:26;22.10;;;20.43;;
9254;SDS011;4663;49.120;9.730;2023-02-28T12:06:00;21.83;;;20.20;;
9254;SDS011;4663;49.120;9.730;2023-02-28T12:28:16;42.07;;;39.30;;
9254;SDS011;4663;49.120;9.730;2023-02-28T12:30:57;44.03;;;41.33;;
9254;SDS011;4663;49.120;9.730;2023-02-28T12:33:27;46.20;;;43.27;;
9254;SDS011;4663;49.120;9.730;2023-02-28T12:35:59;44.30;;;41.73;;
9254;SDS011;4663;49.120;9.730;2023-02-28T12:41:02;44.40;;;41.77;;
9254;SDS011;4663;49.120;9.730;2023-02-28T12:43:34;35.63;;;33.43;;
9254;SDS011;4663;49.120;9.730;2023-02-28T12:46:09;31.83;;;29.80;;
9254;SDS011;4663;49.120;9.730;2023-02-28T12:48:42;37.13;;;34.77;;
9254;SDS011;4663;49.120;9.730;2023-02-28T12:51:11;35.63;;;33.43;;
9254;SDS011;4663;49.120;9.730;2023-02-28T12:56:42;36.23;;;33.93;;
9254;SDS011;4663;49.120;9.730;2023-02-28T13:10:24;48.07;;;44.97;;
9254;SDS011;4663;49.120;9.730;2023-02-28T13:12:52;46.03;;;43.30;;
9254;SDS011;4663;49.120;9.730;2023-02-28T13:15:21;47.10;;;44.27;;
9254;SDS011;4663;49.120;9.730;2023-02-28T13:17:50;43.93;;;41.27;;
9254;SDS011;4663;49.120;9.730;2023-02-28T13:20:28;43.83;;;41.10;;
9254;SDS011;4663;49.120;9.730;2023-02-28T13:22:59;44.17;;;41.57;;
9254;SDS011;4663;49.120;9.730;2023-02-28T13:28:10;45.63;;;42.80;;
9254;SDS011;4663;49.120;9.730;2023-02-28T13:33:32;41.47;;;38.77;;
9254;SDS011;4663;49.120;9.730;2023-02-28T13:38:44;47.67;;;44.60;;
9254;SDS011;4663;49.120;9.730;2023-02-28T13:51:48;45.23;;;42.47;;
9254;SDS011;4663;49.120;9.730;2023-02-28T13:57:07;46.40;;;43.27;;
9254;SDS011;4663;49.120;9.730;2023-02-28T14:02:28;47.63;;;44.80;;
9254;SDS011;4663;49.120;9.730;2023-02-28T14:05:20;46.37;;;43.63;;
9254;SDS011;4663;49.120;9.730;2023-02-28T14:07:52;47.83;;;44.83;;
9254;SDS011;4663;49.120;9.730;2023-02-28T14:10:29;46.50;;;43.60;;
9254;SDS011;4663;49.120;9.730;2023-02-28T14:15:56;44.07;;;41.50;;
9254;SDS011;4663;49.120;9.730;2023-02-28T14:37:15;47.83;;;45.07;;
9254;SDS011;4663;49.120;9.730;2023-02-28T14:39:45;50.27;;;47.37;;
9254;SDS011;4663;49.120;9.730;2023-02-28T14:42:46;47.33;;;44.57;;
9254;SDS011;4663;49.120;9.730;2023-02-28T14:45:16;42.13;;;39.63;;
9254;SDS011;4663;49.120;9.730;2023-02-28T14:47:43;44.60;;;41.87;;
9254;SDS011;4663;49.120;9.730;2023-02-28T14:50:17;42.77;;;40.13;;
9254;SDS011;4663;49.120;9.730;2023-02-28T14:52:44;38.83;;;36.40;;
9254;SDS011;4663;49.120;9.730;2023-02-28T14:55:12;40.97;;;38.47;;
9254;SDS011;4663;49.120;9.730;2023-02-28T14:57:41;43.87;;;40.97;;
9254;SDS011;4663;49.120;9.730;2023-02-28T15:02:46;40.20;;;37.80;;
9254;SDS011;4663;49.120;9.730;2023-02-28T15:07:37;36.77;;;34.37;;
9254;SDS011;4663;49.120;9.730;2023-02-28T15:12:52;37.97;;;35.53;;
9254;SDS011;4663;49.120;9.730;2023-02-28T15:15:45;41.17;;;38.63;;
9254;SDS011;4663;49.120;9.730;2023-02-28T15:21:02;44.33;;;41.63;;
9254;SDS011;4663;49.120;9.730;2023-02-28T15:23:31;41.77;;;38.97;;
9254;SDS011;4663;49.120;9.730;2023-02-28T15:25:57;36.43;;;34.03;;
9254;SDS011;4663;49.120;9.730;2023-02-28T15:28:24;34.53;;;32.23;;
9254;SDS011;4663;49.120;9.730;2023-02-28T15:30:51;33.20;;;30.73;;
9254;SDS011;4663;49.120;9.730;2023-02-28T15:33:21;32.23;;;30.13;;
9254;SDS011;4663;49.120;9.730;2023-02-28T15:38:52;30.77;;;28.53;;
9254;SDS011;4663;49.120;9.730;2023-02-28T15:41:23;32.63;;;30.60;;
9254;SDS011;4663;49.120;9.730;2023-02-28T15:46:53;36.50;;;34.23;;
9254;SDS011;4663;49.120;9.730;2023-02-28T15:49:22;41.17;;;38.70;;
9254;SDS011;4663;49.120;9.730;2023-02-28T15:51:49;43.37;;;40.73;;
9254;SDS011;4663;49.120;9.730;2023-02-28T15:54:22;40.70;;;38.30;;
9254;SDS011;4663;49.120;9.730;2023-02-28T15:56:53;39.33;;;36.93;;
9254;SDS011;4663;49.120;9.730;2023-02-28T15:59:23;34.60;;;32.33;;
9254;SDS011;4663;49.120;9.730;2023-02-28T16:02:03;32.87;;;30.70;;
9254;SDS011;4663;49.120;9.730;2023-02-28T16:07:23;28.03;;;26.17;;
9254;SDS011;4663;49.120;9.730;2023-02-28T16:09:49;31.10;;;28.73;;
9254;SDS011;4663;49.120;9.730;2023-02-28T16:12:15;27.33;;;25.53;;
9254;SDS011;4663;49.120;9.730;2023-02-28T16:14:41;29.67;;;27.57;;
9254;SDS011;4663;49.120;9.730;2023-02-28T16:17:11;33.10;;;30.90;;
9254;SDS011;4663;49.120;9.730;2023-02-28T16:19:44;31.87;;;29.70;;
9254;SDS011;4663;49.120;9.730;2023-02-28T16:22:09;32.63;;;30.37;;
9254;SDS011;4663;49.120;9.730;2023-02-28T16:24:35;32.00;;;29.87;;
9254;SDS011;4663;49.120;9.730;2023-02-28T16:27:00;30.80;;;28.67;;
9254;SDS011;4663;49.120;9.730;2023-02-28T16:29:32;30.07;;;28.00;;
9254;SDS011;4663;49.120;9.730;2023-02-28T16:32:00;29.03;;;27.00;;
9254;SDS011;4663;49.120;9.730;2023-02-28T16:34:28;29.40;;;27.50;;
9254;SDS011;4663;49.120;9.730;2023-02-28T16:36:54;29.50;;;27.43;;
9254;SDS011;4663;49.120;9.730;2023-02-28T16:39:19;28.93;;;26.93;;
9254;SDS011;4663;49.120;9.730;2023-02-28T16:41:45;29.40;;;27.33;;
9254;SDS011;4663;49.120;9.730;2023-02-28T16:44:17;29.27;;;27.30;;
9254;SDS011;4663;49.120;9.730;2023-02-28T16:46:51;29.50;;;27.43;;
9254;SDS011;4663;49.120;9.730;2023-02-28T16:49:16;29.13;;;27.13;;
9254;SDS011;4663;49.120;9.730;2023-02-28T16:51:42;27.63;;;25.70;;
9254;SDS011;4663;49.120;9.730;2023-02-28T16:54:07;29.23;;;27.17;;
9254;SDS011;4663;49.120;9.730;2023-02-28T16:56:32;30.50;;;28.13;;
9254;SDS011;4663;49.120;9.730;2023-02-28T16:58:59;27.53;;;25.67;;
9254;SDS011;4663;49.120;9.730;2023-02-28T17:01:26;26.13;;;24.30;;
9254;SDS011;4663;49.120;9.730;2023-02-28T17:03:52;23.90;;;22.13;;
9254;SDS011;4663;49.120;9.730;2023-02-28T17:06:26;22.73;;;21.07;;
9254;SDS011;4663;49.120;9.730;2023-02-28T17:08:53;20.33;;;18.83;;
9254;SDS011;4663;49.120;9.730;2023-02-28T17:11:19;18.07;;;16.70;;
9254;SDS011;4663;49.120;9.730;2023-02-28T17:13:45;20.10;;;18.37;;
9254;SDS011;4663;49.120;9.730;2023-02-28T17:18:45;18.93;;;17.23;;
9254;SDS011;4663;49.120;9.730;2023-02-28T17:21:14;18.43;;;16.93;;
9254;SDS011;4663;49.120;9.730;2023-02-28T17:23:41;20.33;;;18.53;;
9254;SDS011;4663;49.120;9.730;2023-02-28T17:26:08;19.50;;;17.93;;
9254;SDS011;4663;49.120;9.730;2023-02-28T17:28:37;19.17;;;17.57;;
9254;SDS011;4663;49.120;9.730;2023-02-28T17:31:03;18.43;;;17.03;;
9254;SDS011;4663;49.120;9.730;2023-02-28T17:33:28;20.50;;;18.87;;
9254;SDS011;4663;49.120;9.730;2023-02-28T17:35:53;19.73;;;18.03;;
9254;SDS011;4663;49.120;9.730;2023-02-28T17:38:19;21.33;;;19.63;;
9254;SDS011;4663;49.120;9.730;2023-02-28T17:40:47;22.17;;;20.43;;
9254;SDS011;4663;49.120;9.730;2023-02-28T17:43:12;22.20;;;20.50;;
9254;SDS011;4663;49.120;9.730;2023-02-28T17:45:37;25.40;;;23.47;;
9254;SDS011;4663;49.120;9.730;2023-02-28T17:48:03;26.40;;;24.30;;
9254;SDS011;4663;49.120;9.730;2023-02-28T17:50:29;27.67;;;25.40;;
9254;SDS011;4663;49.120;9.730;2023-02-28T17:52:55;29.30;;;27.10;;
9254;SDS011;4663;49.120;9.730;2023-02-28T17:55:21;29.40;;;27.20;;
9254;SDS011;4663;49.120;9.730;2023-02-28T17:57:46;30.50;;;28.03;;
9254;SDS011;4663;49.120;9.730;2023-02-28T18:00:12;34.97;;;32.57;;
9254;SDS011;4663;49.120;9.730;2023-02-28T18:02:41;37.40;;;34.80;;
9254;SDS011;4663;49.120;9.730;2023-02-28T18:05:07;36.43;;;33.93;;